Time;durP1;ratioP1;P1;durP2;ratioP2;P2;SDS_P1;SDS_P2;PMS_P1;PMS_P2;Temp;Humidity;BMP_temperature;BMP_pressure;BME280_temperature;BME280_humidity;BME280_pressure;Samples;Min_cycle;Max_cycle;Signal;HPM_P1;HPM_P2
2022/04/22 00:01:44;;;;;;;;;;;10.40;76.40;;;;;;5050182;28;19913;-84
2022/04/22 00:04:10;;;;;;;;;;;10.40;76.50;;;;;;5031146;28;19936;-83
2022/04/22 00:06:35;;;;;;;;;;;10.40;76.40;;;;;;5016806;28;19922;-84
2022/04/22 00:09:00;;;;;;;;;;;10.30;76.60;;;;;;5015907;28;19996;-82
2022/04/22 00:11:29;;;;;;;;;;;10.30;76.70;;;;;;5016937;28;20422;-83
2022/04/22 00:13:55;;;;;;;;;;;10.30;76.80;;;;;;5009728;28;20003;-82
2022/04/22 00:16:21;;;;;;;;;;;10.30;76.90;;;;;;5025582;28;19950;-83
2022/04/22 00:18:47;;;;;;;;;;;10.20;77.00;;;;;;5019247;28;19917;-83
2022/04/22 00:21:12;;;;;;;;;;;10.20;77.20;;;;;;5045574;28;19908;-83
2022/04/22 00:23:37;;;;;;;;;;;10.20;77.50;;;;;;5009881;28;20019;-83
2022/04/22 00:26:03;;;;;;;;;;;10.10;77.50;;;;;;5022620;28;19940;-83
2022/04/22 00:28:29;;;;;;;;;;;10.10;77.60;;;;;;5023819;28;19917;-83
2022/04/22 00:30:54;;;;;;;;;;;10.10;77.70;;;;;;5018661;28;19921;-83
2022/04/22 00:33:20;;;;;;;;;;;10.20;77.50;;;;;;5009111;28;19917;-83
2022/04/22 00:35:45;;;;;;;;;;;10.30;77.30;;;;;;5015102;28;20385;-83
2022/04/22 00:38:11;;;;;;;;;;;10.40;77.30;;;;;;5025161;28;19955;-82
2022/04/22 00:40:37;;;;;;;;;;;10.40;77.10;;;;;;5033418;28;19924;-83
2022/04/22 00:43:19;;;;;;;;;;;10.50;76.90;;;;;;5039384;28;19991;-82
2022/04/22 00:45:45;;;;;;;;;;;10.50;76.90;;;;;;5024620;28;19920;-83
2022/04/22 00:48:10;;;;;;;;;;;10.40;77.00;;;;;;5026568;28;20403;-84
2022/04/22 00:50:36;;;;;;;;;;;10.40;77.10;;;;;;5009952;28;20004;-83
2022/04/22 00:53:02;;;;;;;;;;;10.40;77.10;;;;;;5009854;28;20406;-83
2022/04/22 00:55:28;;;;;;;;;;;10.40;77.10;;;;;;5019492;28;19956;-83
2022/04/22 00:57:54;;;;;;;;;;;10.30;77.20;;;;;;5026106;28;20343;-83
2022/04/22 01:00:20;;;;;;;;;;;10.30;77.30;;;;;;5041506;28;19909;-83
2022/04/22 01:02:45;;;;;;;;;;;10.30;77.20;;;;;;5012518;28;19914;-84
2022/04/22 01:10:39;;;;;;;;;;;10.30;77.10;;;;;;5021151;28;19936;-83
2022/04/22 01:13:07;;;;;;;;;;;10.40;77.00;;;;;;5015221;28;19913;-84
2022/04/22 01:15:36;;;;;;;;;;;10.30;77.10;;;;;;5015601;28;19909;-84
2022/04/22 01:18:01;;;;;;;;;;;10.30;77.20;;;;;;5029619;28;19957;-83
2022/04/22 01:20:27;;;;;;;;;;;10.40;77.00;;;;;;5030849;28;20347;-83
2022/04/22 01:22:52;;;;;;;;;;;10.30;77.10;;;;;;5026847;28;20391;-83
2022/04/22 01:25:18;;;;;;;;;;;10.30;77.20;;;;;;5014085;28;20476;-83
2022/04/22 01:27:44;;;;;;;;;;;10.40;77.20;;;;;;5029353;28;19919;-83
2022/04/22 01:30:10;;;;;;;;;;;10.30;77.10;;;;;;5030728;28;20295;-83
2022/04/22 01:32:35;;;;;;;;;;;10.30;77.20;;;;;;5022971;28;20007;-83
2022/04/22 01:35:01;;;;;;;;;;;10.30;77.30;;;;;;5027783;28;19914;-83
2022/04/22 01:37:26;;;;;;;;;;;10.30;77.50;;;;;;5031859;28;19978;-83
2022/04/22 01:39:52;;;;;;;;;;;10.20;77.60;;;;;;5032312;28;20024;-83
2022/04/22 01:42:20;;;;;;;;;;;10.20;77.70;;;;;;5033410;28;19964;-83
2022/04/22 01:44:46;;;;;;;;;;;10.10;78.00;;;;;;5050647;28;19959;-83
2022/04/22 01:47:12;;;;;;;;;;;10.10;78.00;;;;;;5020569;28;19921;-83
2022/04/22 01:49:37;;;;;;;;;;;10.10;77.90;;;;;;5014859;28;19913;-83
2022/04/22 01:52:03;;;;;;;;;;;10.10;78.00;;;;;;5020154;28;20031;-83
2022/04/22 01:54:28;;;;;;;;;;;10.10;78.20;;;;;;5031641;28;19921;-83
2022/04/22 01:56:54;;;;;;;;;;;10.10;78.10;;;;;;5033573;28;19928;-83
2022/04/22 01:59:19;;;;;;;;;;;10.00;78.40;;;;;;5028895;28;19968;-83
2022/04/22 02:01:45;;;;;;;;;;;10.10;78.40;;;;;;5014921;28;20340;-81
2022/04/22 02:04:10;;;;;;;;;;;10.00;78.40;;;;;;5014187;28;20347;-82
2022/04/22 02:06:35;;;;;;;;;;;9.90;78.80;;;;;;5014679;28;19916;-82
2022/04/22 02:09:01;;;;;;;;;;;10.00;78.60;;;;;;5030333;28;19913;-81
2022/04/22 02:11:26;;;;;;;;;;;10.00;78.60;;;;;;5024047;28;19921;-81
2022/04/22 02:13:52;;;;;;;;;;;9.90;78.90;;;;;;5027498;28;19922;-81
2022/04/22 02:16:17;;;;;;;;;;;9.80;79.10;;;;;;5029944;28;20330;-81
2022/04/22 02:18:43;;;;;;;;;;;9.90;79.10;;;;;;5015626;28;20012;-81
2022/04/22 02:21:09;;;;;;;;;;;9.90;79.10;;;;;;5031030;28;19920;-81
2022/04/22 02:23:34;;;;;;;;;;;9.90;78.90;;;;;;5028279;28;19922;-81
2022/04/22 02:26:00;;;;;;;;;;;9.90;78.90;;;;;;5019812;28;19918;-81
2022/04/22 02:28:31;;;;;;;;;;;9.90;79.20;;;;;;5027500;28;20062;-81
2022/04/22 02:31:04;;;;;;;;;;;9.90;79.30;;;;;;5030576;28;19924;-81
2022/04/22 02:33:31;;;;;;;;;;;9.90;79.30;;;;;;5017599;28;19920;-81
2022/04/22 02:35:56;;;;;;;;;;;9.90;79.10;;;;;;5032112;28;19924;-81
2022/04/22 02:38:21;;;;;;;;;;;9.80;79.40;;;;;;5027236;28;20140;-81
2022/04/22 02:46:15;;;;;;;;;;;9.80;79.60;;;;;;5025553;28;21354;-81
2022/04/22 02:48:41;;;;;;;;;;;9.80;79.50;;;;;;5019746;28;20005;-81
2022/04/22 02:51:06;;;;;;;;;;;9.80;79.60;;;;;;5036703;28;20340;-82
2022/04/22 02:53:32;;;;;;;;;;;9.80;79.50;;;;;;5027363;28;19918;-82
2022/04/22 02:55:58;;;;;;;;;;;9.80;79.60;;;;;;5018109;28;20008;-81
2022/04/22 02:58:24;;;;;;;;;;;9.70;79.70;;;;;;5026554;28;20445;-82
2022/04/22 03:00:49;;;;;;;;;;;9.70;79.70;;;;;;5032712;28;20016;-82
2022/04/22 03:03:15;;;;;;;;;;;9.70;79.80;;;;;;5033774;28;19987;-82
2022/04/22 03:05:41;;;;;;;;;;;9.60;79.90;;;;;;5022496;28;20198;-82
2022/04/22 03:08:08;;;;;;;;;;;9.60;79.90;;;;;;5030372;28;20000;-81
2022/04/22 03:10:33;;;;;;;;;;;9.70;79.80;;;;;;5034304;28;19922;-82
2022/04/22 03:12:59;;;;;;;;;;;9.60;79.80;;;;;;5011694;28;19917;-82
2022/04/22 03:15:25;;;;;;;;;;;9.70;79.90;;;;;;5016510;28;20095;-82
2022/04/22 03:17:51;;;;;;;;;;;9.70;79.90;;;;;;5031467;28;19909;-82
2022/04/22 03:20:16;;;;;;;;;;;9.60;79.80;;;;;;5030545;28;19917;-82
2022/04/22 03:22:42;;;;;;;;;;;9.60;79.70;;;;;;5013535;28;19917;-82
2022/04/22 03:25:08;;;;;;;;;;;9.60;80.10;;;;;;5030751;28;20425;-81
2022/04/22 03:27:33;;;;;;;;;;;9.50;80.20;;;;;;5016632;28;19933;-82
2022/04/22 03:29:59;;;;;;;;;;;9.60;80.40;;;;;;5030988;28;19983;-82
2022/04/22 03:32:25;;;;;;;;;;;9.60;80.30;;;;;;5011933;28;19913;-83
2022/04/22 03:34:50;;;;;;;;;;;9.60;80.30;;;;;;5021243;28;19913;-83
2022/04/22 03:37:16;;;;;;;;;;;9.60;80.00;;;;;;5030313;28;20314;-82
2022/04/22 03:39:41;;;;;;;;;;;9.60;80.00;;;;;;5028519;28;20299;-82
2022/04/22 03:42:07;;;;;;;;;;;9.60;80.10;;;;;;5022920;28;19918;-82
2022/04/22 03:44:32;;;;;;;;;;;9.60;80.30;;;;;;5010996;28;19916;-82
2022/04/22 03:46:58;;;;;;;;;;;9.60;80.30;;;;;;5013198;28;20352;-82
2022/04/22 03:49:23;;;;;;;;;;;9.40;81.00;;;;;;5027504;28;19932;-82
2022/04/22 03:51:49;;;;;;;;;;;9.50;80.90;;;;;;5027137;28;19991;-83
2022/04/22 03:54:18;;;;;;;;;;;9.50;80.90;;;;;;5047643;28;20011;-83
2022/04/22 03:59:28;;;;;;;;;;;9.40;81.40;;;;;;5028545;28;20406;-83
2022/04/22 04:01:53;;;;;;;;;;;9.40;81.50;;;;;;5028121;28;19964;-83
2022/04/22 04:04:19;;;;;;;;;;;9.40;81.70;;;;;;5033089;28;19909;-84
2022/04/22 04:06:44;;;;;;;;;;;9.50;82.10;;;;;;5021438;28;19932;-83
2022/04/22 04:17:22;;;;;;;;;;;9.80;81.80;;;;;;5030643;28;19916;-83
2022/04/22 04:25:17;;;;;;;;;;;9.80;81.70;;;;;;5027090;28;19971;-82
2022/04/22 04:27:42;;;;;;;;;;;9.80;81.70;;;;;;5032953;28;19917;-84
2022/04/22 04:30:08;;;;;;;;;;;9.80;81.70;;;;;;5031103;28;20334;-83
2022/04/22 04:32:34;;;;;;;;;;;9.80;81.90;;;;;;5030621;28;20369;-83
2022/04/22 04:34:59;;;;;;;;;;;9.80;82.00;;;;;;5033879;28;19914;-83
2022/04/22 04:37:25;;;;;;;;;;;9.80;82.10;;;;;;5033291;28;19944;-84
2022/04/22 04:39:50;;;;;;;;;;;9.80;82.10;;;;;;5024073;28;20000;-83
2022/04/22 04:42:16;;;;;;;;;;;9.70;82.30;;;;;;5015574;28;19961;-84
2022/04/22 04:44:41;;;;;;;;;;;9.80;82.40;;;;;;5025360;28;19913;-83
2022/04/22 04:47:07;;;;;;;;;;;9.80;82.50;;;;;;5035948;28;19988;-83
2022/04/22 04:49:32;;;;;;;;;;;9.90;82.30;;;;;;5029669;28;19914;-84
2022/04/22 04:51:58;;;;;;;;;;;9.90;82.20;;;;;;5034987;28;19925;-82
2022/04/22 04:54:23;;;;;;;;;;;10.00;82.20;;;;;;5032764;28;20324;-83
2022/04/22 04:56:50;;;;;;;;;;;10.10;81.80;;;;;;5032709;28;19923;-84
2022/04/22 04:59:16;;;;;;;;;;;10.10;81.80;;;;;;5023361;28;19913;-84
2022/04/22 05:01:42;;;;;;;;;;;10.10;82.20;;;;;;5033823;28;19975;-84
2022/04/22 05:04:07;;;;;;;;;;;10.20;81.80;;;;;;5033468;28;19920;-83
2022/04/22 05:06:33;;;;;;;;;;;10.20;81.80;;;;;;5030161;28;19944;-83
2022/04/22 05:08:58;;;;;;;;;;;10.30;81.70;;;;;;5022026;28;19952;-82
2022/04/22 05:11:23;;;;;;;;;;;10.30;81.60;;;;;;5030889;28;19913;-81
2022/04/22 05:13:49;;;;;;;;;;;10.30;81.90;;;;;;5025661;28;19989;-81
2022/04/22 05:16:14;;;;;;;;;;;10.30;81.60;;;;;;5033938;28;19913;-81
2022/04/22 05:18:40;;;;;;;;;;;10.30;81.80;;;;;;5043309;28;20285;-83
2022/04/22 05:21:06;;;;;;;;;;;10.30;81.60;;;;;;5014373;28;20368;-81
2022/04/22 05:23:31;;;;;;;;;;;10.30;81.50;;;;;;5023286;28;20104;-84
2022/04/22 05:25:57;;;;;;;;;;;10.40;81.70;;;;;;5029029;28;19948;-84
2022/04/22 05:28:22;;;;;;;;;;;10.40;81.50;;;;;;5028521;28;19983;-83
2022/04/22 05:33:33;;;;;;;;;;;10.40;81.60;;;;;;5028252;28;19964;-81
2022/04/22 05:35:59;;;;;;;;;;;10.50;81.40;;;;;;5021675;28;20288;-81
2022/04/22 05:38:24;;;;;;;;;;;10.50;81.40;;;;;;5029108;28;19921;-82
2022/04/22 05:40:49;;;;;;;;;;;10.50;81.60;;;;;;5029119;28;19956;-84
2022/04/22 05:43:15;;;;;;;;;;;10.50;81.40;;;;;;5030242;28;19924;-83
2022/04/22 05:45:40;;;;;;;;;;;10.50;81.30;;;;;;5014947;28;19940;-83
2022/04/22 05:48:06;;;;;;;;;;;10.50;81.30;;;;;;5014990;28;19914;-83
2022/04/22 05:50:32;;;;;;;;;;;10.50;81.20;;;;;;5015894;28;20368;-84
2022/04/22 05:52:58;;;;;;;;;;;10.60;81.20;;;;;;5028241;28;19917;-83
2022/04/22 05:55:24;;;;;;;;;;;10.60;81.20;;;;;;5038859;28;19942;-83
2022/04/22 05:57:50;;;;;;;;;;;10.60;81.40;;;;;;5023045;28;19964;-82
2022/04/22 06:00:18;;;;;;;;;;;10.50;81.00;;;;;;5036707;28;19913;-84
2022/04/22 06:02:44;;;;;;;;;;;10.60;81.00;;;;;;5019117;28;19917;-83
2022/04/22 06:05:10;;;;;;;;;;;10.60;80.90;;;;;;5016853;28;19972;-83
2022/04/22 06:07:39;;;;;;;;;;;10.60;80.90;;;;;;5040761;28;19987;-83
2022/04/22 06:12:50;;;;;;;;;;;10.60;80.80;;;;;;5035854;28;20482;-83
2022/04/22 06:15:15;;;;;;;;;;;10.70;80.40;;;;;;5030751;28;19961;-83
2022/04/22 06:17:41;;;;;;;;;;;10.60;80.60;;;;;;5013953;28;20334;-84
2022/04/22 06:20:06;;;;;;;;;;;10.70;80.60;;;;;;5014404;28;19929;-83
2022/04/22 06:22:32;;;;;;;;;;;10.80;80.00;;;;;;5015242;28;19913;-83
2022/04/22 06:24:57;;;;;;;;;;;10.80;79.90;;;;;;5029567;28;20360;-83
2022/04/22 06:27:27;;;;;;;;;;;10.80;79.80;;;;;;5032918;28;19940;-84
2022/04/22 06:29:53;;;;;;;;;;;10.80;80.00;;;;;;5028450;28;20421;-83
2022/04/22 06:32:18;;;;;;;;;;;10.80;79.60;;;;;;5037184;28;19909;-83
2022/04/22 06:34:44;;;;;;;;;;;11.00;79.60;;;;;;5031349;28;19920;-84
2022/04/22 06:37:11;;;;;;;;;;;11.00;79.40;;;;;;5033122;28;19920;-83
2022/04/22 06:45:46;;;;;;;;;;;11.10;79.10;;;;;;5029743;28;19946;-84
2022/04/22 06:47:51;;;;;;;;;;;11.30;78.50;;;;;;5012795;28;19967;-83
2022/04/22 06:50:19;;;;;;;;;;;11.30;77.90;;;;;;5010942;28;19921;-83
2022/04/22 06:52:47;;;;;;;;;;;11.30;78.50;;;;;;5026545;28;19935;-83
2022/04/22 06:55:22;;;;;;;;;;;11.40;78.40;;;;;;5043733;28;19913;-83
2022/04/22 06:57:51;;;;;;;;;;;11.50;77.20;;;;;;5049893;28;20290;-83
2022/04/22 07:00:17;;;;;;;;;;;11.60;77.40;;;;;;5030903;28;19920;-84
2022/04/22 07:02:43;;;;;;;;;;;11.80;76.30;;;;;;5025832;28;19917;-84
2022/04/22 07:05:09;;;;;;;;;;;11.60;76.30;;;;;;5017144;28;19997;-81
2022/04/22 07:07:34;;;;;;;;;;;11.70;76.80;;;;;;5028754;28;19917;-81
2022/04/22 07:10:00;;;;;;;;;;;11.70;76.20;;;;;;5025303;28;19925;-81
2022/04/22 07:12:26;;;;;;;;;;;11.60;76.10;;;;;;5015191;28;19913;-82
2022/04/22 07:14:57;;;;;;;;;;;11.60;76.10;;;;;;5026400;28;20399;-81
2022/04/22 07:17:23;;;;;;;;;;;11.60;76.30;;;;;;5041693;28;19913;-82
2022/04/22 07:19:48;;;;;;;;;;;11.70;76.50;;;;;;5057845;28;19992;-84
2022/04/22 07:22:14;;;;;;;;;;;11.90;74.90;;;;;;5030861;28;20409;-84
2022/04/22 07:24:39;;;;;;;;;;;11.80;74.60;;;;;;5032685;28;19924;-85
2022/04/22 07:27:05;;;;;;;;;;;11.90;74.80;;;;;;5050077;28;19939;-85
2022/04/22 07:29:32;;;;;;;;;;;11.90;74.30;;;;;;5044222;28;19909;-85
2022/04/22 07:31:58;;;;;;;;;;;12.00;75.00;;;;;;5052302;28;19909;-84
2022/04/22 07:34:23;;;;;;;;;;;12.20;73.60;;;;;;5037995;28;20284;-85
2022/04/22 07:36:49;;;;;;;;;;;12.10;73.50;;;;;;5048541;28;20345;-88
2022/04/22 07:39:14;;;;;;;;;;;12.10;74.00;;;;;;5032287;28;19913;-85
2022/04/22 07:41:42;;;;;;;;;;;12.10;73.40;;;;;;5035444;28;19978;-89
2022/04/22 07:46:58;;;;;;;;;;;11.80;73.70;;;;;;5038626;28;19920;-83
2022/04/22 07:49:26;;;;;;;;;;;11.60;73.80;;;;;;5031103;28;19917;-84
2022/04/22 07:51:52;;;;;;;;;;;11.60;74.20;;;;;;5031035;28;19939;-84
2022/04/22 07:54:18;;;;;;;;;;;11.60;73.30;;;;;;5032034;28;19917;-86
2022/04/22 07:56:44;;;;;;;;;;;11.80;73.30;;;;;;5033580;28;19910;-86
2022/04/22 07:59:09;;;;;;;;;;;11.90;72.90;;;;;;5040720;28;19924;-85
2022/04/22 08:01:35;;;;;;;;;;;12.00;72.80;;;;;;5027438;28;19909;-84
2022/04/22 08:04:01;;;;;;;;;;;12.10;73.50;;;;;;5041202;28;20372;-85
2022/04/22 08:06:27;;;;;;;;;;;12.20;72.70;;;;;;5018788;28;19924;-84
2022/04/22 08:08:52;;;;;;;;;;;12.30;72.20;;;;;;5042733;28;19917;-84
2022/04/22 08:11:20;;;;;;;;;;;12.50;71.90;;;;;;5036457;28;20260;-86
2022/04/22 08:13:45;;;;;;;;;;;12.60;70.60;;;;;;5049126;28;19969;-87
2022/04/22 08:16:12;;;;;;;;;;;12.80;71.80;;;;;;5031984;28;19917;-85
2022/04/22 08:18:38;;;;;;;;;;;13.00;70.20;;;;;;5028923;28;19913;-86
2022/04/22 08:21:03;;;;;;;;;;;13.10;71.00;;;;;;5022749;28;20371;-86
2022/04/22 08:23:29;;;;;;;;;;;13.10;68.50;;;;;;5041122;28;19917;-84
2022/04/22 08:25:55;;;;;;;;;;;13.00;70.00;;;;;;5043651;28;19963;-84
2022/04/22 08:28:20;;;;;;;;;;;13.00;69.20;;;;;;5031018;28;19928;-85
2022/04/22 08:30:46;;;;;;;;;;;12.80;68.40;;;;;;5035100;28;19988;-85
2022/04/22 08:33:12;;;;;;;;;;;12.80;70.20;;;;;;5047390;28;19917;-83
2022/04/22 08:35:37;;;;;;;;;;;13.00;68.60;;;;;;5031729;28;19917;-85
2022/04/22 08:38:05;;;;;;;;;;;13.00;70.30;;;;;;5031279;28;19920;-85
2022/04/22 08:40:31;;;;;;;;;;;12.90;69.50;;;;;;5024690;28;20390;-83
2022/04/22 08:43:00;;;;;;;;;;;12.80;69.00;;;;;;5041245;28;19917;-85
2022/04/22 08:45:26;;;;;;;;;;;12.90;68.60;;;;;;5045778;28;19955;-85
2022/04/22 08:50:37;;;;;;;;;;;13.20;69.00;;;;;;5039273;28;19939;-84
2022/04/22 08:53:11;;;;;;;;;;;13.30;68.80;;;;;;5036505;28;19917;-85
2022/04/22 08:55:37;;;;;;;;;;;13.50;68.30;;;;;;5037051;28;19909;-85
2022/04/22 08:58:06;;;;;;;;;;;13.40;66.70;;;;;;5027844;28;19984;-84
2022/04/22 09:00:34;;;;;;;;;;;13.10;67.50;;;;;;5034031;28;19991;-84
2022/04/22 09:02:59;;;;;;;;;;;13.10;67.40;;;;;;5035308;28;19928;-84
2022/04/22 09:05:26;;;;;;;;;;;13.10;68.20;;;;;;5048392;28;20356;-85
2022/04/22 09:07:52;;;;;;;;;;;13.20;67.90;;;;;;5043174;28;20338;-84
2022/04/22 09:10:17;;;;;;;;;;;13.20;68.40;;;;;;5042028;28;19925;-85
2022/04/22 09:12:50;;;;;;;;;;;13.20;67.90;;;;;;5038819;28;20351;-86
2022/04/22 09:15:15;;;;;;;;;;;13.30;67.50;;;;;;5031007;28;19917;-85
2022/04/22 09:17:41;;;;;;;;;;;13.40;67.90;;;;;;5033363;28;19932;-85
2022/04/22 09:20:11;;;;;;;;;;;13.50;66.00;;;;;;5026101;28;19935;-83
2022/04/22 09:22:37;;;;;;;;;;;13.50;65.20;;;;;;5021982;28;19918;-85
2022/04/22 09:25:05;;;;;;;;;;;13.60;66.10;;;;;;5031417;28;19971;-85
2022/04/22 09:27:30;;;;;;;;;;;13.50;65.50;;;;;;5043333;28;19999;-84
2022/04/22 09:29:56;;;;;;;;;;;13.60;67.00;;;;;;5032122;28;19984;-82
2022/04/22 09:32:25;;;;;;;;;;;13.50;66.70;;;;;;5033267;28;19932;-84
2022/04/22 09:34:51;;;;;;;;;;;13.80;65.00;;;;;;5029352;28;19913;-86
2022/04/22 09:42:52;;;;;;;;;;;14.00;65.50;;;;;;5037214;28;20433;-84
2022/04/22 09:45:17;;;;;;;;;;;13.90;64.20;;;;;;5033919;28;20279;-83
2022/04/22 09:47:43;;;;;;;;;;;13.70;64.60;;;;;;5035130;28;19909;-83
2022/04/22 09:50:11;;;;;;;;;;;13.70;65.70;;;;;;5033126;28;19917;-83
2022/04/22 09:52:39;;;;;;;;;;;13.70;65.70;;;;;;5034321;28;20376;-83
2022/04/22 09:55:07;;;;;;;;;;;13.80;65.30;;;;;;5048215;28;19952;-85
2022/04/22 09:57:52;;;;;;;;;;;13.90;65.40;;;;;;5029468;28;19909;-84
2022/04/22 10:00:18;;;;;;;;;;;14.00;65.00;;;;;;5030745;28;19917;-84
2022/04/22 10:02:45;;;;;;;;;;;14.00;63.80;;;;;;5034151;28;20024;-86
2022/04/22 10:05:11;;;;;;;;;;;13.80;64.00;;;;;;5032140;28;20375;-86
2022/04/22 10:07:36;;;;;;;;;;;13.70;64.90;;;;;;5034300;28;20003;-86
2022/04/22 10:10:03;;;;;;;;;;;13.60;66.10;;;;;;5032220;28;20418;-84
2022/04/22 10:12:29;;;;;;;;;;;13.80;65.30;;;;;;5033767;28;19949;-86
2022/04/22 10:14:57;;;;;;;;;;;13.90;63.90;;;;;;5014290;28;19948;-85
2022/04/22 10:17:23;;;;;;;;;;;13.90;64.50;;;;;;5017884;28;20382;-86
2022/04/22 10:19:48;;;;;;;;;;;13.90;65.20;;;;;;5013532;28;20298;-86
2022/04/22 10:22:15;;;;;;;;;;;14.00;64.90;;;;;;5012797;28;19914;-84
2022/04/22 10:24:41;;;;;;;;;;;14.00;64.70;;;;;;5031053;28;20387;-84
2022/04/22 10:27:08;;;;;;;;;;;14.00;65.40;;;;;;5031781;28;19952;-84
2022/04/22 10:29:34;;;;;;;;;;;14.20;64.90;;;;;;5047680;28;19910;-85
2022/04/22 10:32:02;;;;;;;;;;;14.40;64.50;;;;;;5030077;28;20410;-87
2022/04/22 10:34:40;;;;;;;;;;;14.30;64.90;;;;;;5036956;28;19983;-81
2022/04/22 10:37:16;;;;;;;;;;;14.20;64.10;;;;;;5034222;28;19909;-84
2022/04/22 10:39:41;;;;;;;;;;;14.10;63.60;;;;;;5031513;28;19945;-84
2022/04/22 10:42:14;;;;;;;;;;;14.10;65.40;;;;;;5029663;28;19970;-85
2022/04/22 10:47:42;;;;;;;;;;;13.70;65.30;;;;;;5018238;28;19944;-84
2022/04/22 10:50:26;;;;;;;;;;;13.50;66.70;;;;;;5028370;28;19913;-85
2022/04/22 10:52:55;;;;;;;;;;;13.50;65.90;;;;;;5034143;28;20310;-84
2022/04/22 10:55:20;;;;;;;;;;;13.60;66.80;;;;;;5033866;28;19921;-85
2022/04/22 10:57:50;;;;;;;;;;;13.60;66.90;;;;;;5032540;28;19909;-84
2022/04/22 11:00:17;;;;;;;;;;;13.50;66.30;;;;;;5033733;28;19951;-84
2022/04/22 11:02:43;;;;;;;;;;;13.60;67.20;;;;;;5033619;28;19913;-85
2022/04/22 11:05:21;;;;;;;;;;;13.80;66.40;;;;;;5019879;28;19987;-85
2022/04/22 11:07:56;;;;;;;;;;;13.90;66.00;;;;;;5028375;28;20347;-85
2022/04/22 11:10:48;;;;;;;;;;;14.00;66.00;;;;;;5011414;28;19918;-86
2022/04/22 11:13:33;;;;;;;;;;;14.00;65.60;;;;;;5013376;28;19916;-83
2022/04/22 11:16:17;;;;;;;;;;;14.00;65.30;;;;;;5024204;28;19913;-85
2022/04/22 11:18:43;;;;;;;;;;;14.00;65.60;;;;;;5027748;28;20399;-86
2022/04/22 11:21:13;;;;;;;;;;;14.10;65.30;;;;;;5045030;28;19916;-85
2022/04/22 11:23:44;;;;;;;;;;;14.10;66.30;;;;;;5017587;28;20051;-86
2022/04/22 11:26:14;;;;;;;;;;;14.20;66.00;;;;;;5021297;28;19944;-84
2022/04/22 11:28:40;;;;;;;;;;;14.30;65.60;;;;;;5032450;28;19921;-86
2022/04/22 11:31:08;;;;;;;;;;;14.50;66.00;;;;;;5049916;28;19999;-85
2022/04/22 11:33:52;;;;;;;;;;;14.50;65.10;;;;;;5033867;28;19920;-85
2022/04/22 11:36:17;;;;;;;;;;;14.50;64.40;;;;;;5023312;28;19913;-84
2022/04/22 11:38:53;;;;;;;;;;;14.40;65.00;;;;;;5018993;28;19997;-84
2022/04/22 11:41:19;;;;;;;;;;;14.20;64.30;;;;;;5024304;28;19968;-85
2022/04/22 11:43:45;;;;;;;;;;;14.20;65.80;;;;;;5031217;28;20327;-85
2022/04/22 11:46:12;;;;;;;;;;;14.20;65.40;;;;;;5031390;28;19970;-85
2022/04/22 11:48:45;;;;;;;;;;;14.20;65.30;;;;;;5030809;28;19920;-85
2022/04/22 11:51:10;;;;;;;;;;;14.30;64.70;;;;;;5026062;28;20427;-85
2022/04/22 11:53:36;;;;;;;;;;;14.30;65.60;;;;;;5012394;28;19973;-86
2022/04/22 11:56:02;;;;;;;;;;;14.30;64.80;;;;;;5013826;28;19910;-86
2022/04/22 11:58:27;;;;;;;;;;;14.20;64.90;;;;;;5050164;28;19935;-89
2022/04/22 12:06:23;;;;;;;;;;;14.00;66.70;;;;;;5030980;28;19920;-85
2022/04/22 12:08:52;;;;;;;;;;;14.10;65.70;;;;;;5049943;28;19953;-88
2022/04/22 12:11:17;;;;;;;;;;;14.30;64.50;;;;;;5035632;28;19928;-87
2022/04/22 12:13:44;;;;;;;;;;;14.30;64.90;;;;;;5033092;28;19909;-86
2022/04/22 12:16:10;;;;;;;;;;;14.40;64.90;;;;;;5054763;28;20015;-86
2022/04/22 12:18:36;;;;;;;;;;;14.60;64.40;;;;;;5040276;28;19937;-87
2022/04/22 12:21:02;;;;;;;;;;;14.50;64.10;;;;;;5033057;28;19913;-88
2022/04/22 12:23:38;;;;;;;;;;;14.50;65.60;;;;;;5019241;28;19925;-87
2022/04/22 12:26:05;;;;;;;;;;;14.40;65.40;;;;;;5012425;28;19917;-86
2022/04/22 12:28:30;;;;;;;;;;;14.50;66.00;;;;;;5027380;28;19963;-87
2022/04/22 12:30:57;;;;;;;;;;;14.50;64.70;;;;;;5037277;28;19938;-87
2022/04/22 12:33:24;;;;;;;;;;;14.50;64.70;;;;;;5035454;28;19913;-87
2022/04/22 12:36:07;;;;;;;;;;;14.50;64.70;;;;;;5020343;28;19929;-88
2022/04/22 12:38:34;;;;;;;;;;;14.50;63.60;;;;;;5012208;28;19909;-89
2022/04/22 12:41:00;;;;;;;;;;;14.40;64.40;;;;;;5011375;28;20068;-89
2022/04/22 12:43:31;;;;;;;;;;;14.20;65.10;;;;;;5010917;28;20429;-88
2022/04/22 12:52:08;;;;;;;;;;;14.50;65.80;;;;;;5022362;28;19967;-86
2022/04/22 12:54:34;;;;;;;;;;;14.70;66.00;;;;;;5030356;28;20004;-87
2022/04/22 12:57:00;;;;;;;;;;;14.60;64.10;;;;;;5033250;28;19948;-86
2022/04/22 12:59:43;;;;;;;;;;;14.50;65.30;;;;;;5038567;28;19916;-87
2022/04/22 13:02:09;;;;;;;;;;;14.30;66.20;;;;;;5026398;28;19991;-85
2022/04/22 13:04:48;;;;;;;;;;;14.00;66.40;;;;;;5010568;28;20360;-86
2022/04/22 13:07:14;;;;;;;;;;;13.90;67.20;;;;;;5010654;28;19914;-88
2022/04/22 13:09:39;;;;;;;;;;;13.80;67.60;;;;;;5010073;28;20053;-88
2022/04/22 13:12:05;;;;;;;;;;;13.70;67.20;;;;;;5011336;28;19910;-87
2022/04/22 13:14:30;;;;;;;;;;;13.70;66.60;;;;;;5011667;28;19910;-86
2022/04/22 13:16:56;;;;;;;;;;;13.80;66.10;;;;;;5013724;28;19910;-86
2022/04/22 13:19:21;;;;;;;;;;;13.70;66.40;;;;;;5047951;28;19908;-86
2022/04/22 13:21:47;;;;;;;;;;;13.90;66.90;;;;;;5051524;28;19908;-87
2022/04/22 13:24:12;;;;;;;;;;;14.10;66.00;;;;;;5034861;28;20564;-85
2022/04/22 13:26:38;;;;;;;;;;;14.30;65.00;;;;;;5047119;28;20415;-86
2022/04/22 13:29:07;;;;;;;;;;;14.40;65.50;;;;;;5031783;28;19911;-87
2022/04/22 13:31:33;;;;;;;;;;;14.50;63.50;;;;;;5031043;28;19952;-86
2022/04/22 13:34:01;;;;;;;;;;;14.50;64.10;;;;;;5030483;28;19909;-88
2022/04/22 13:36:26;;;;;;;;;;;14.50;64.00;;;;;;5031637;28;20344;-86
2022/04/22 13:38:52;;;;;;;;;;;14.40;64.20;;;;;;5029441;28;19993;-88
2022/04/22 13:41:17;;;;;;;;;;;14.40;64.30;;;;;;5031116;28;19920;-86
2022/04/22 13:43:43;;;;;;;;;;;14.50;64.20;;;;;;5030253;28;20334;-87
2022/04/22 13:54:21;;;;;;;;;;;14.80;60.70;;;;;;5015328;28;19917;-88
2022/04/22 13:56:48;;;;;;;;;;;14.60;61.10;;;;;;5026682;28;19909;-89
2022/04/22 13:59:13;;;;;;;;;;;14.60;62.10;;;;;;5039714;28;19909;-88
2022/04/22 14:01:39;;;;;;;;;;;14.70;63.40;;;;;;5054998;28;20276;-89
2022/04/22 14:04:05;;;;;;;;;;;14.80;62.80;;;;;;5039499;28;19914;-88
2022/04/22 14:06:30;;;;;;;;;;;14.80;61.80;;;;;;5034049;28;19909;-87
2022/04/22 14:08:56;;;;;;;;;;;14.70;62.30;;;;;;5030811;28;20356;-86
2022/04/22 14:11:21;;;;;;;;;;;14.80;62.40;;;;;;5012439;28;20321;-87
2022/04/22 14:13:50;;;;;;;;;;;14.90;63.50;;;;;;4984875;28;19909;-93
2022/04/22 14:16:15;;;;;;;;;;;15.10;61.90;;;;;;4977588;28;19961;-87
2022/04/22 14:18:41;;;;;;;;;;;15.30;60.70;;;;;;5119145;22;19936;-79
2022/04/22 14:21:15;;;;;;;;;;;15.10;59.50;;;;;;5007696;28;19960;-81
2022/04/22 14:23:44;;;;;;;;;;;15.10;59.70;;;;;;4992899;28;19978;-82
2022/04/22 14:26:12;;;;;;;;;;;15.10;60.20;;;;;;5014488;28;19909;-84
2022/04/22 14:28:38;;;;;;;;;;;15.20;59.40;;;;;;4986862;28;20029;-84
2022/04/22 14:31:06;;;;;;;;;;;15.40;60.00;;;;;;4974702;28;19913;-84
2022/04/22 14:33:32;;;;;;;;;;;15.40;58.20;;;;;;4982072;28;20192;-85
2022/04/22 14:35:58;;;;;;;;;;;15.50;58.80;;;;;;4983163;28;20211;-83
2022/04/22 14:38:29;;;;;;;;;;;15.50;58.50;;;;;;4980645;28;20203;-84
2022/04/22 14:40:55;;;;;;;;;;;15.60;59.20;;;;;;4982699;28;19917;-83
2022/04/22 14:43:20;;;;;;;;;;;15.60;57.80;;;;;;4982293;28;19913;-83
2022/04/22 14:45:49;;;;;;;;;;;15.60;56.70;;;;;;4976028;28;19920;-81
2022/04/22 14:48:21;;;;;;;;;;;15.50;57.90;;;;;;4934697;28;19924;-81
2022/04/22 14:50:48;;;;;;;;;;;15.50;57.50;;;;;;4986103;28;19921;-81
2022/04/22 14:53:14;;;;;;;;;;;15.60;56.90;;;;;;4975961;28;20261;-84
2022/04/22 14:55:39;;;;;;;;;;;15.80;57.70;;;;;;4971430;28;19913;-82
2022/04/22 14:58:05;;;;;;;;;;;15.80;57.70;;;;;;4968212;28;20141;-82
2022/04/22 15:00:32;;;;;;;;;;;15.90;58.10;;;;;;4968605;28;19909;-83
2022/04/22 15:02:57;;;;;;;;;;;16.00;57.90;;;;;;4970700;28;20098;-81
2022/04/22 15:05:23;;;;;;;;;;;16.00;56.90;;;;;;4966736;28;20748;-82
2022/04/22 15:07:49;;;;;;;;;;;15.80;58.10;;;;;;4973756;28;19956;-81
2022/04/22 15:10:16;;;;;;;;;;;15.70;57.00;;;;;;4969959;28;20824;-83
2022/04/22 15:12:42;;;;;;;;;;;15.70;55.50;;;;;;4963600;28;20255;-86
2022/04/22 15:15:08;;;;;;;;;;;15.70;56.50;;;;;;4958424;28;20185;-82
2022/04/22 15:25:47;;;;;;;;;;;15.80;56.70;;;;;;4972712;28;20036;-84
2022/04/22 15:28:13;;;;;;;;;;;15.90;55.10;;;;;;4975024;28;20004;-83
2022/04/22 15:31:23;;;;;;;;;;;16.00;56.40;;;;;;4999475;28;19909;-82
2022/04/22 15:33:48;;;;;;;;;;;16.00;56.30;;;;;;4993699;28;19909;-82
2022/04/22 15:36:14;;;;;;;;;;;15.90;54.80;;;;;;4981338;28;20076;-81
2022/04/22 15:38:43;;;;;;;;;;;15.90;55.10;;;;;;4955010;28;19950;-82